sensor_id;sensor_type;location;lat;lon;timestamp;pressure;altitude;pressure_sealevel;temperature;humidity
69570;BME280;56781;42.292;23.146;2024-01-16T00:00:33;93993.09;;;3.21;78.25
69570;BME280;56781;42.292;23.146;2024-01-16T00:03:02;93560.31;;;0.51;77.86
69570;BME280;56781;42.292;23.146;2024-01-16T00:05:31;93849.41;;;2.74;77.24
69570;BME280;56781;42.292;23.146;2024-01-16T00:08:00;93703.88;;;1.61;76.98
69570;BME280;56781;42.292;23.146;2024-01-16T00:10:29;93992.03;;;3.70;77.15
69570;BME280;56781;42.292;23.146;2024-01-16T00:12:58;93655.06;;;1.44;77.18
69570;BME280;56781;42.292;23.146;2024-01-16T00:15:28;93705.41;;;1.62;76.43
69570;BME280;56781;42.292;23.146;2024-01-16T00:17:57;93290.31;;;-1.19;75.90
69570;BME280;56781;42.292;23.146;2024-01-16T00:20:26;93876.44;;;2.63;75.67
69570;BME280;56781;42.292;23.146;2024-01-16T00:22:55;93697.78;;;1.42;77.49
69570;BME280;56781;42.292;23.146;2024-01-16T00:25:24;93774.56;;;2.04;77.97
69570;BME280;56781;42.292;23.146;2024-01-16T00:27:52;93912.06;;;3.14;77.82
69570;BME280;56781;42.292;23.146;2024-01-16T00:30:21;94001.31;;;3.73;77.92
69570;BME280;56781;42.292;23.146;2024-01-16T00:32:52;93883.19;;;3.07;77.57
69570;BME280;56781;42.292;23.146;2024-01-16T00:35:21;93462.03;;;0.14;77.78
69570;BME280;56781;42.292;23.146;2024-01-16T00:37:49;93730.78;;;1.71;77.67
69570;BME280;56781;42.292;23.146;2024-01-16T00:40:19;93596.72;;;0.98;78.11
69570;BME280;56781;42.292;23.146;2024-01-16T00:42:48;93985.03;;;3.76;78.42
69570;BME280;56781;42.292;23.146;2024-01-16T00:45:17;94011.06;;;4.12;77.87
69570;BME280;56781;42.292;23.146;2024-01-16T00:47:45;93827.94;;;3.15;77.11
69570;BME280;56781;42.292;23.146;2024-01-16T00:50:16;94014.03;;;4.28;77.68
69570;BME280;56781;42.292;23.146;2024-01-16T00:52:45;93391.34;;;0.28;77.50
69570;BME280;56781;42.292;23.146;2024-01-16T00:55:13;94007.78;;;4.35;77.42
69570;BME280;56781;42.292;23.146;2024-01-16T00:57:42;93484.91;;;0.76;77.20
69570;BME280;56781;42.292;23.146;2024-01-16T01:00:11;93567.44;;;1.15;77.14
69570;BME280;56781;42.292;23.146;2024-01-16T01:02:40;93680.56;;;2.03;77.40
69570;BME280;56781;42.292;23.146;2024-01-16T01:05:09;94007.13;;;4.20;76.09
69570;BME280;56781;42.292;23.146;2024-01-16T01:07:41;93534.13;;;0.69;75.83
69570;BME280;56781;42.292;23.146;2024-01-16T01:10:13;93324.72;;;-1.49;76.10
69570;BME280;56781;42.292;23.146;2024-01-16T01:12:42;93685.97;;;0.72;77.05
69570;BME280;56781;42.292;23.146;2024-01-16T01:15:10;93389.03;;;-1.64;78.11
69570;BME280;56781;42.292;23.146;2024-01-16T01:17:41;93373.47;;;-0.83;81.24
69570;BME280;56781;42.292;23.146;2024-01-16T01:20:10;93577.47;;;1.03;80.09
69570;BME280;56781;42.292;23.146;2024-01-16T01:22:42;93406.75;;;0.09;79.32
69570;BME280;56781;42.292;23.146;2024-01-16T01:25:12;93705.06;;;2.33;78.71
69570;BME280;56781;42.292;23.146;2024-01-16T01:27:41;93668.56;;;2.18;78.27
69570;BME280;56781;42.292;23.146;2024-01-16T01:30:10;93951.56;;;4.08;78.40
69570;BME280;56781;42.292;23.146;2024-01-16T01:32:40;94003.47;;;4.41;79.14
69570;BME280;56781;42.292;23.146;2024-01-16T01:35:09;93618.31;;;1.83;78.55
69570;BME280;56781;42.292;23.146;2024-01-16T01:37:38;93374.09;;;0.11;78.33
69570;BME280;56781;42.292;23.146;2024-01-16T01:40:10;93568.44;;;1.49;78.48
69570;BME280;56781;42.292;23.146;2024-01-16T01:42:41;93899.19;;;3.36;79.44
69570;BME280;56781;42.292;23.146;2024-01-16T01:45:11;93621.88;;;1.62;79.17
69570;BME280;56781;42.292;23.146;2024-01-16T01:47:41;93465.06;;;0.34;79.01
69570;BME280;56781;42.292;23.146;2024-01-16T01:50:13;94012.63;;;4.13;80.05
69570;BME280;56781;42.292;23.146;2024-01-16T01:52:42;93415.94;;;0.15;79.02
69570;BME280;56781;42.292;23.146;2024-01-16T01:55:14;93676.44;;;1.84;79.81
69570;BME280;56781;42.292;23.146;2024-01-16T01:57:44;93924.69;;;3.35;80.42
69570;BME280;56781;42.292;23.146;2024-01-16T02:00:14;93485.38;;;0.46;79.62
69570;BME280;56781;42.292;23.146;2024-01-16T02:02:45;93896.13;;;3.33;80.18
69570;BME280;56781;42.292;23.146;2024-01-16T02:05:15;93766.78;;;2.17;80.89
69570;BME280;56781;42.292;23.146;2024-01-16T02:07:44;94033.13;;;4.07;79.90
69570;BME280;56781;42.292;23.146;2024-01-16T02:10:14;93641.91;;;1.53;80.30
69570;BME280;56781;42.292;23.146;2024-01-16T02:12:43;93816.16;;;2.87;80.87
69570;BME280;56781;42.292;23.146;2024-01-16T02:15:12;93668.69;;;1.89;80.19
69570;BME280;56781;42.292;23.146;2024-01-16T02:17:41;93219.03;;;-1.05;79.89
69570;BME280;56781;42.292;23.146;2024-01-16T02:20:10;93468.47;;;0.49;80.35
69570;BME280;56781;42.292;23.146;2024-01-16T02:22:42;93817.31;;;2.86;81.04
69570;BME280;56781;42.292;23.146;2024-01-16T02:25:15;93572.34;;;1.34;80.29
69570;BME280;56781;42.292;23.146;2024-01-16T02:27:44;93454.16;;;0.73;79.81
69570;BME280;56781;42.292;23.146;2024-01-16T02:30:13;93925.31;;;4.05;80.04
69570;BME280;56781;42.292;23.146;2024-01-16T02:32:41;93846.25;;;3.42;79.55
69570;BME280;56781;42.292;23.146;2024-01-16T02:35:10;93553.88;;;1.36;79.47
69570;BME280;56781;42.292;23.146;2024-01-16T02:37:39;94014.84;;;4.66;79.51
69570;BME280;56781;42.292;23.146;2024-01-16T02:40:08;93355.28;;;0.07;79.50
69570;BME280;56781;42.292;23.146;2024-01-16T02:42:39;93943.88;;;4.03;79.47
69570;BME280;56781;42.292;23.146;2024-01-16T02:45:09;94026.47;;;4.63;79.81
69570;BME280;56781;42.292;23.146;2024-01-16T02:47:37;93985.91;;;4.18;79.83
69570;BME280;56781;42.292;23.146;2024-01-16T02:50:07;93397.06;;;0.37;79.04
69570;BME280;56781;42.292;23.146;2024-01-16T02:52:37;93383.94;;;0.46;78.10
69570;BME280;56781;42.292;23.146;2024-01-16T02:55:07;93758.97;;;3.00;77.65
69570;BME280;56781;42.292;23.146;2024-01-16T02:57:36;93669.44;;;1.97;78.39
69570;BME280;56781;42.292;23.146;2024-01-16T03:00:07;93545.09;;;1.21;78.16
69570;BME280;56781;42.292;23.146;2024-01-16T03:02:36;93468.41;;;0.66;78.61
69570;BME280;56781;42.292;23.146;2024-01-16T03:05:06;93959.53;;;3.81;79.97
69570;BME280;56781;42.292;23.146;2024-01-16T03:07:35;93612.78;;;1.30;79.64
69570;BME280;56781;42.292;23.146;2024-01-16T03:10:04;93593.28;;;0.91;80.22
69570;BME280;56781;42.292;23.146;2024-01-16T03:12:32;93611.78;;;0.74;81.15
69570;BME280;56781;42.292;23.146;2024-01-16T03:15:02;93919.97;;;2.79;82.38
69570;BME280;56781;42.292;23.146;2024-01-16T03:17:32;94018.16;;;3.28;83.51
69570;BME280;56781;42.292;23.146;2024-01-16T03:20:01;93451.31;;;-0.69;83.83
69570;BME280;56781;42.292;23.146;2024-01-16T03:22:31;93525.78;;;-0.26;84.26
69570;BME280;56781;42.292;23.146;2024-01-16T03:25:00;93725.13;;;1.26;85.37
69570;BME280;56781;42.292;23.146;2024-01-16T03:27:29;94130.19;;;4.01;85.77
69570;BME280;56781;42.292;23.146;2024-01-16T03:29:58;94018.88;;;3.36;85.77
69570;BME280;56781;42.292;23.146;2024-01-16T03:32:27;93805.50;;;1.64;85.10
69570;BME280;56781;42.292;23.146;2024-01-16T03:34:58;93570.31;;;0.11;85.40
69570;BME280;56781;42.292;23.146;2024-01-16T03:37:27;93680.97;;;0.66;85.66
69570;BME280;56781;42.292;23.146;2024-01-16T03:39:55;93580.28;;;-0.11;85.38
69570;BME280;56781;42.292;23.146;2024-01-16T03:42:24;94148.16;;;3.59;86.58
69570;BME280;56781;42.292;23.146;2024-01-16T03:44:53;93692.84;;;0.22;86.75
69570;BME280;56781;42.292;23.146;2024-01-16T03:47:22;93663.66;;;0.17;86.43
69570;BME280;56781;42.292;23.146;2024-01-16T03:49:51;94078.84;;;2.95;87.75
69570;BME280;56781;42.292;23.146;2024-01-16T03:52:21;93583.34;;;-0.34;87.44
69570;BME280;56781;42.292;23.146;2024-01-16T03:54:50;93941.38;;;2.20;87.77
69570;BME280;56781;42.292;23.146;2024-01-16T03:57:19;93564.19;;;0.17;85.34
69570;BME280;56781;42.292;23.146;2024-01-16T03:59:48;93589.91;;;0.29;85.36
69570;BME280;56781;42.292;23.146;2024-01-16T04:02:17;94185.38;;;4.14;85.29
69570;BME280;56781;42.292;23.146;2024-01-16T04:04:46;93779.28;;;1.68;85.03
69570;BME280;56781;42.292;23.146;2024-01-16T04:07:15;94074.69;;;3.71;84.24
69570;BME280;56781;42.292;23.146;2024-01-16T04:09:45;93822.81;;;1.66;83.53
69570;BME280;56781;42.292;23.146;2024-01-16T04:12:14;94092.88;;;3.67;84.21
69570;BME280;56781;42.292;23.146;2024-01-16T04:14:43;93490.06;;;-0.52;83.07
69570;BME280;56781;42.292;23.146;2024-01-16T04:17:11;93633.31;;;0.60;82.60
69570;BME280;56781;42.292;23.146;2024-01-16T04:19:40;94206.56;;;4.37;83.26
69570;BME280;56781;42.292;23.146;2024-01-16T04:22:09;93568.78;;;0.20;82.55
69570;BME280;56781;42.292;23.146;2024-01-16T04:24:38;93661.72;;;0.82;81.40
69570;BME280;56781;42.292;23.146;2024-01-16T04:27:10;94041.69;;;3.31;81.82
69570;BME280;56781;42.292;23.146;2024-01-16T04:29:39;94280.53;;;4.83;81.44
69570;BME280;56781;42.292;23.146;2024-01-16T04:32:07;93862.41;;;1.94;82.02
69570;BME280;56781;42.292;23.146;2024-01-16T04:34:36;94161.44;;;4.09;82.13
69570;BME280;56781;42.292;23.146;2024-01-16T04:37:05;93637.94;;;0.52;81.11
69570;BME280;56781;42.292;23.146;2024-01-16T04:39:34;93838.59;;;1.64;81.95
69570;BME280;56781;42.292;23.146;2024-01-16T04:42:03;93878.59;;;1.87;83.05
69570;BME280;56781;42.292;23.146;2024-01-16T04:44:33;93716.31;;;0.54;82.19
69570;BME280;56781;42.292;23.146;2024-01-16T04:47:02;94180.78;;;4.11;81.45
69570;BME280;56781;42.292;23.146;2024-01-16T04:49:31;93666.38;;;0.60;81.47
69570;BME280;56781;42.292;23.146;2024-01-16T04:52:00;93607.94;;;0.21;81.55
69570;BME280;56781;42.292;23.146;2024-01-16T04:54:29;94249.81;;;4.44;80.94
69570;BME280;56781;42.292;23.146;2024-01-16T04:56:58;93797.44;;;1.31;81.60
69570;BME280;56781;42.292;23.146;2024-01-16T04:59:26;93807.84;;;1.19;81.80
69570;BME280;56781;42.292;23.146;2024-01-16T05:01:57;94265.03;;;4.13;81.92
69570;BME280;56781;42.292;23.146;2024-01-16T05:04:25;94320.94;;;4.52;83.31
69570;BME280;56781;42.292;23.146;2024-01-16T05:06:54;94327.53;;;4.51;82.56
69570;BME280;56781;42.292;23.146;2024-01-16T05:09:23;94338.03;;;4.35;83.20
69570;BME280;56781;42.292;23.146;2024-01-16T05:11:52;94164.50;;;3.13;83.47
69570;BME280;56781;42.292;23.146;2024-01-16T05:14:21;93979.50;;;1.86;82.78
69570;BME280;56781;42.292;23.146;2024-01-16T05:16:52;94255.53;;;3.55;82.74
69570;BME280;56781;42.292;23.146;2024-01-16T05:19:22;93723.13;;;-0.02;81.43
69570;BME280;56781;42.292;23.146;2024-01-16T05:21:51;93812.75;;;0.45;81.22
69570;BME280;56781;42.292;23.146;2024-01-16T05:24:20;93786.16;;;0.15;81.75
69570;BME280;56781;42.292;23.146;2024-01-16T05:26:48;93799.97;;;0.13;82.20
69570;BME280;56781;42.292;23.146;2024-01-16T05:29:18;93817.25;;;0.09;81.96
69570;BME280;56781;42.292;23.146;2024-01-16T05:31:47;94394.56;;;3.83;83.50
69570;BME280;56781;42.292;23.146;2024-01-16T05:34:15;94036.38;;;1.24;82.78
69570;BME280;56781;42.292;23.146;2024-01-16T05:36:46;94313.88;;;3.35;81.72
69570;BME280;56781;42.292;23.146;2024-01-16T05:39:14;94337.78;;;3.18;82.02
69570;BME280;56781;42.292;23.146;2024-01-16T05:41:44;94050.97;;;1.19;81.46
69570;BME280;56781;42.292;23.146;2024-01-16T05:44:13;94121.94;;;1.59;80.71
69570;BME280;56781;42.292;23.146;2024-01-16T05:46:43;94121.25;;;1.80;79.77
69570;BME280;56781;42.292;23.146;2024-01-16T05:49:12;94357.50;;;3.26;80.22
69570;BME280;56781;42.292;23.146;2024-01-16T05:51:41;94437.09;;;3.75;79.60
69570;BME280;56781;42.292;23.146;2024-01-16T05:54:11;94106.44;;;1.38;78.72
69570;BME280;56781;42.292;23.146;2024-01-16T05:56:40;94463.34;;;3.64;79.73
69570;BME280;56781;42.292;23.146;2024-01-16T05:59:09;94290.97;;;2.42;79.11
69570;BME280;56781;42.292;23.146;2024-01-16T06:01:37;94276.94;;;2.08;78.22
69570;BME280;56781;42.292;23.146;2024-01-16T06:04:06;94118.88;;;0.84;78.73
69570;BME280;56781;42.292;23.146;2024-01-16T06:06:37;93852.56;;;-1.03;78.84
69570;BME280;56781;42.292;23.146;2024-01-16T06:09:06;94441.94;;;2.98;78.87
69570;BME280;56781;42.292;23.146;2024-01-16T06:11:36;93964.69;;;-0.41;78.04
69570;BME280;56781;42.292;23.146;2024-01-16T06:14:05;93907.13;;;-0.92;74.53
69570;BME280;56781;42.292;23.146;2024-01-16T06:16:34;94557.44;;;3.22;76.54
69570;BME280;56781;42.292;23.146;2024-01-16T06:19:03;94214.38;;;1.01;76.07
69570;BME280;56781;42.292;23.146;2024-01-16T06:21:32;94458.56;;;2.30;74.95
69570;BME280;56781;42.292;23.146;2024-01-16T06:24:01;94265.31;;;1.24;73.95
69570;BME280;56781;42.292;23.146;2024-01-16T06:26:30;94483.00;;;2.52;74.55
69570;BME280;56781;42.292;23.146;2024-01-16T06:29:00;93756.69;;;-2.29;73.68
69570;BME280;56781;42.292;23.146;2024-01-16T06:31:29;94194.25;;;0.39;75.03
69570;BME280;56781;42.292;23.146;2024-01-16T06:33:58;94071.25;;;-0.56;74.72
69570;BME280;56781;42.292;23.146;2024-01-16T06:36:26;94224.69;;;0.43;74.61
69570;BME280;56781;42.292;23.146;2024-01-16T06:38:55;94277.47;;;0.62;74.61
69570;BME280;56781;42.292;23.146;2024-01-16T06:41:24;94020.38;;;-1.13;73.74
69570;BME280;56781;42.292;23.146;2024-01-16T06:43:52;94350.34;;;0.84;75.13
69570;BME280;56781;42.292;23.146;2024-01-16T06:46:22;94191.28;;;-0.27;74.49
69570;BME280;56781;42.292;23.146;2024-01-16T06:48:52;94128.69;;;-0.64;73.36
69570;BME280;56781;42.292;23.146;2024-01-16T06:51:21;94648.00;;;2.47;74.75
69570;BME280;56781;42.292;23.146;2024-01-16T06:53:50;94612.38;;;2.30;74.40
69570;BME280;56781;42.292;23.146;2024-01-16T06:56:19;94738.09;;;2.72;74.21
69570;BME280;56781;42.292;23.146;2024-01-16T06:58:48;94469.59;;;1.22;73.11
69570;BME280;56781;42.292;23.146;2024-01-16T07:01:16;94747.94;;;2.54;73.60
69570;BME280;56781;42.292;23.146;2024-01-16T07:03:47;94356.88;;;0.15;73.82
69570;BME280;56781;42.292;23.146;2024-01-16T07:06:16;94068.31;;;-1.91;73.09
69570;BME280;56781;42.292;23.146;2024-01-16T07:08:45;94038.06;;;-2.41;73.81
69570;BME280;56781;42.292;23.146;2024-01-16T07:11:14;94047.50;;;-2.48;74.20
69570;BME280;56781;42.292;23.146;2024-01-16T07:13:43;94417.66;;;-0.07;74.11
69570;BME280;56781;42.292;23.146;2024-01-16T07:16:12;94643.25;;;1.28;75.26
69570;BME280;56781;42.292;23.146;2024-01-16T07:18:41;94452.25;;;-0.28;74.92
69570;BME280;56781;42.292;23.146;2024-01-16T07:21:19;94719.94;;;1.64;75.05
69570;BME280;56781;42.292;23.146;2024-01-16T07:23:48;94776.06;;;1.85;75.25
69570;BME280;56781;42.292;23.146;2024-01-16T07:26:17;94800.00;;;1.90;75.35
69570;BME280;56781;42.292;23.146;2024-01-16T07:28:46;94279.69;;;-1.67;76.48
69570;BME280;56781;42.292;23.146;2024-01-16T07:31:15;94156.13;;;-2.66;76.26
69570;BME280;56781;42.292;23.146;2024-01-16T07:33:44;94289.16;;;-1.73;75.41
69570;BME280;56781;42.292;23.146;2024-01-16T07:36:13;94199.41;;;-2.25;76.37
69570;BME280;56781;42.292;23.146;2024-01-16T07:38:44;94416.31;;;-0.70;72.92
69570;BME280;56781;42.292;23.146;2024-01-16T07:41:12;94647.28;;;0.61;73.52
69570;BME280;56781;42.292;23.146;2024-01-16T07:43:41;94615.03;;;0.38;74.31
69570;BME280;56781;42.292;23.146;2024-01-16T07:46:14;94206.00;;;-2.19;74.09
69570;BME280;56781;42.292;23.146;2024-01-16T07:48:43;94362.22;;;-1.37;71.90
69570;BME280;56781;42.292;23.146;2024-01-16T07:51:13;94534.09;;;-0.03;73.58
69570;BME280;56781;42.292;23.146;2024-01-16T07:53:43;94708.03;;;1.12;73.08
69570;BME280;56781;42.292;23.146;2024-01-16T07:56:12;94878.31;;;2.28;73.63
69570;BME280;56781;42.292;23.146;2024-01-16T07:58:41;94697.25;;;0.62;68.04
69570;BME280;56781;42.292;23.146;2024-01-16T08:01:10;94897.19;;;1.97;68.27
69570;BME280;56781;42.292;23.146;2024-01-16T08:03:39;94571.69;;;-0.26;67.02
69570;BME280;56781;42.292;23.146;2024-01-16T08:06:07;94303.84;;;-2.06;66.71
69570;BME280;56781;42.292;23.146;2024-01-16T08:08:36;94830.38;;;1.34;64.45
69570;BME280;56781;42.292;23.146;2024-01-16T08:11:07;94943.44;;;1.99;67.03
69570;BME280;56781;42.292;23.146;2024-01-16T08:13:36;94134.00;;;-3.37;64.58
69570;BME280;56781;42.292;23.146;2024-01-16T08:16:05;94328.72;;;-2.25;64.41
69570;BME280;56781;42.292;23.146;2024-01-16T08:18:37;94935.72;;;1.98;64.57
69570;BME280;56781;42.292;23.146;2024-01-16T08:21:06;94753.75;;;0.39;64.15
69570;BME280;56781;42.292;23.146;2024-01-16T08:23:35;94941.75;;;1.88;63.44
69570;BME280;56781;42.292;23.146;2024-01-16T08:26:04;94603.53;;;-0.47;63.50
69570;BME280;56781;42.292;23.146;2024-01-16T08:28:35;94278.44;;;-2.51;62.70
69570;BME280;56781;42.292;23.146;2024-01-16T08:31:04;94939.50;;;1.93;63.39
69570;BME280;56781;42.292;23.146;2024-01-16T08:33:33;94257.50;;;-2.64;63.64
69570;BME280;56781;42.292;23.146;2024-01-16T08:36:12;94497.66;;;-1.08;63.99
69570;BME280;56781;42.292;23.146;2024-01-16T08:38:41;94389.16;;;-1.69;62.42
69570;BME280;56781;42.292;23.146;2024-01-16T08:41:10;94572.19;;;-0.62;61.66
69570;BME280;56781;42.292;23.146;2024-01-16T08:43:41;94387.75;;;-1.82;62.04
69570;BME280;56781;42.292;23.146;2024-01-16T08:46:10;94963.34;;;1.45;62.70
69570;BME280;56781;42.292;23.146;2024-01-16T08:48:38;94301.94;;;-2.60;62.18
69570;BME280;56781;42.292;23.146;2024-01-16T08:51:11;94663.13;;;-0.41;63.41
69570;BME280;56781;42.292;23.146;2024-01-16T08:53:41;94403.78;;;-2.21;60.87
69570;BME280;56781;42.292;23.146;2024-01-16T08:56:10;94919.19;;;1.07;64.31
69570;BME280;56781;42.292;23.146;2024-01-16T08:58:41;94392.59;;;-2.74;62.69
69570;BME280;56781;42.292;23.146;2024-01-16T09:01:10;94680.16;;;-0.73;62.80
69570;BME280;56781;42.292;23.146;2024-01-16T09:03:39;94356.78;;;-2.85;61.76
69570;BME280;56781;42.292;23.146;2024-01-16T09:06:08;94648.59;;;-0.95;62.97
69570;BME280;56781;42.292;23.146;2024-01-16T09:08:38;94832.31;;;0.10;60.70
69570;BME280;56781;42.292;23.146;2024-01-16T09:11:07;94927.63;;;1.06;60.78
69570;BME280;56781;42.292;23.146;2024-01-16T09:13:36;94947.91;;;1.42;61.98
69570;BME280;56781;42.292;23.146;2024-01-16T09:16:07;94722.59;;;-0.24;60.45
69570;BME280;56781;42.292;23.146;2024-01-16T09:18:36;94785.22;;;0.35;61.58
69570;BME280;56781;42.292;23.146;2024-01-16T09:21:05;94714.09;;;-0.26;60.86
69570;BME280;56781;42.292;23.146;2024-01-16T09:23:34;94830.53;;;0.76;61.38
69570;BME280;56781;42.292;23.146;2024-01-16T09:26:03;94738.50;;;0.05;60.46
69570;BME280;56781;42.292;23.146;2024-01-16T09:28:32;94910.53;;;1.18;61.08
69570;BME280;56781;42.292;23.146;2024-01-16T09:31:00;94935.31;;;1.73;62.63
69570;BME280;56781;42.292;23.146;2024-01-16T09:33:31;94937.63;;;1.97;59.75
69570;BME280;56781;42.292;23.146;2024-01-16T09:36:00;94730.13;;;0.29;60.27
69570;BME280;56781;42.292;23.146;2024-01-16T09:38:29;94676.81;;;0.12;59.30
69570;BME280;56781;42.292;23.146;2024-01-16T09:40:58;94975.53;;;2.31;60.34
69570;BME280;56781;42.292;23.146;2024-01-16T09:43:27;94662.47;;;0.50;59.18
69570;BME280;56781;42.292;23.146;2024-01-16T09:46:00;94560.59;;;-0.24;58.85
69570;BME280;56781;42.292;23.146;2024-01-16T09:48:31;95020.25;;;2.55;59.63
69570;BME280;56781;42.292;23.146;2024-01-16T09:51:00;94904.84;;;1.95;60.04
69570;BME280;56781;42.292;23.146;2024-01-16T09:53:30;94864.00;;;1.93;61.60
69570;BME280;56781;42.292;23.146;2024-01-16T09:56:02;94307.63;;;-2.07;58.04
69570;BME280;56781;42.292;23.146;2024-01-16T09:58:34;94434.91;;;-1.23;59.16
69570;BME280;56781;42.292;23.146;2024-01-16T10:01:05;94819.53;;;1.07;57.69
69570;BME280;56781;42.292;23.146;2024-01-16T10:03:36;94918.19;;;2.11;60.37
69570;BME280;56781;42.292;23.146;2024-01-16T10:06:06;94342.06;;;-1.70;58.84
69570;BME280;56781;42.292;23.146;2024-01-16T10:08:35;94585.38;;;-0.11;58.31
69570;BME280;56781;42.292;23.146;2024-01-16T10:11:05;94613.78;;;0.09;59.51
69570;BME280;56781;42.292;23.146;2024-01-16T10:13:34;95029.47;;;2.81;59.32
69570;BME280;56781;42.292;23.146;2024-01-16T10:16:04;94464.09;;;-0.98;60.30
69570;BME280;56781;42.292;23.146;2024-01-16T10:18:33;95061.91;;;2.84;59.13
69570;BME280;56781;42.292;23.146;2024-01-16T10:21:04;95031.28;;;2.73;60.02
69570;BME280;56781;42.292;23.146;2024-01-16T10:23:34;94685.84;;;0.23;59.21
69570;BME280;56781;42.292;23.146;2024-01-16T10:26:05;94371.66;;;-2.02;59.49
69570;BME280;56781;42.292;23.146;2024-01-16T10:28:35;94387.84;;;-1.59;59.80
69570;BME280;56781;42.292;23.146;2024-01-16T10:31:04;94801.94;;;1.14;59.63
69570;BME280;56781;42.292;23.146;2024-01-16T10:33:33;94476.53;;;-1.09;58.51
69570;BME280;56781;42.292;23.146;2024-01-16T10:36:11;94825.97;;;1.22;59.83
69570;BME280;56781;42.292;23.146;2024-01-16T10:38:41;94657.97;;;0.35;60.41
69570;BME280;56781;42.292;23.146;2024-01-16T10:41:11;95059.63;;;2.86;59.25
69570;BME280;56781;42.292;23.146;2024-01-16T10:43:41;94563.16;;;-0.31;59.88
69570;BME280;56781;42.292;23.146;2024-01-16T10:46:12;94942.72;;;2.03;59.07
69570;BME280;56781;42.292;23.146;2024-01-16T10:48:42;94617.91;;;0.03;59.55
69570;BME280;56781;42.292;23.146;2024-01-16T10:51:14;95020.69;;;2.61;59.30
69570;BME280;56781;42.292;23.146;2024-01-16T10:53:44;94600.03;;;0.14;59.53
69570;BME280;56781;42.292;23.146;2024-01-16T10:56:14;94292.41;;;-1.83;58.44
69570;BME280;56781;42.292;23.146;2024-01-16T10:58:51;94686.34;;;0.52;57.11
69570;BME280;56781;42.292;23.146;2024-01-16T11:01:25;94662.19;;;0.55;58.01
69570;BME280;56781;42.292;23.146;2024-01-16T11:03:55;94946.44;;;2.74;59.18
69570;BME280;56781;42.292;23.146;2024-01-16T11:06:28;94881.59;;;2.14;58.52
69570;BME280;56781;42.292;23.146;2024-01-16T11:08:59;95046.22;;;3.24;57.67
69570;BME280;56781;42.292;23.146;2024-01-16T11:11:33;94313.41;;;-1.66;59.09
69570;BME280;56781;42.292;23.146;2024-01-16T11:14:05;94977.41;;;2.54;59.02
69570;BME280;56781;42.292;23.146;2024-01-16T11:16:35;94701.56;;;0.90;58.12
69570;BME280;56781;42.292;23.146;2024-01-16T11:19:04;95026.72;;;3.41;58.63
69570;BME280;56781;42.292;23.146;2024-01-16T11:21:58;94265.56;;;-1.64;56.66
69570;BME280;56781;42.292;23.146;2024-01-16T11:24:28;94910.41;;;2.63;57.00
69570;BME280;56781;42.292;23.146;2024-01-16T11:26:57;94901.16;;;2.64;57.53
69570;BME280;56781;42.292;23.146;2024-01-16T11:29:35;94662.53;;;1.03;57.94
69570;BME280;56781;42.292;23.146;2024-01-16T11:32:05;94449.72;;;-0.44;56.54
69570;BME280;56781;42.292;23.146;2024-01-16T11:34:53;94435.97;;;-0.39;57.49
69570;BME280;56781;42.292;23.146;2024-01-16T11:37:32;94870.78;;;2.40;57.77
69570;BME280;56781;42.292;23.146;2024-01-16T11:40:23;95046.59;;;3.56;56.92
69570;BME280;56781;42.292;23.146;2024-01-16T11:42:54;95057.00;;;3.54;55.54
69570;BME280;56781;42.292;23.146;2024-01-16T11:45:48;95068.72;;;3.65;57.78
69570;BME280;56781;42.292;23.146;2024-01-16T11:48:17;94816.69;;;1.99;55.61
69570;BME280;56781;42.292;23.146;2024-01-16T11:50:47;94688.19;;;1.24;56.29
69570;BME280;56781;42.292;23.146;2024-01-16T11:53:37;94605.84;;;0.66;55.16
69570;BME280;56781;42.292;23.146;2024-01-16T11:56:54;94721.13;;;1.67;53.56
69570;BME280;56781;42.292;23.146;2024-01-16T11:59:58;94436.44;;;0.16;53.02
69570;BME280;56781;42.292;23.146;2024-01-16T12:02:38;94667.09;;;1.60;52.55
69570;BME280;56781;42.292;23.146;2024-01-16T12:05:10;95063.97;;;4.33;52.63
69570;BME280;56781;42.292;23.146;2024-01-16T12:07:45;94971.75;;;4.08;54.19
69570;BME280;56781;42.292;23.146;2024-01-16T12:10:19;94766.19;;;2.67;52.15
69570;BME280;56781;42.292;23.146;2024-01-16T12:12:49;94753.88;;;2.70;52.27
69570;BME280;56781;42.292;23.146;2024-01-16T12:15:19;94757.19;;;2.53;52.95
69570;BME280;56781;42.292;23.146;2024-01-16T12:17:56;94561.44;;;1.09;52.35
69570;BME280;56781;42.292;23.146;2024-01-16T12:20:26;95086.13;;;4.46;53.36
69570;BME280;56781;42.292;23.146;2024-01-16T12:22:57;94677.72;;;1.79;52.74
69570;BME280;56781;42.292;23.146;2024-01-16T12:25:28;94573.19;;;0.98;53.88
69570;BME280;56781;42.292;23.146;2024-01-16T12:28:20;94665.72;;;1.39;53.73
69570;BME280;56781;42.292;23.146;2024-01-16T12:30:59;94474.03;;;0.43;52.64
69570;BME280;56781;42.292;23.146;2024-01-16T12:33:30;94655.78;;;1.77;53.29
69570;BME280;56781;42.292;23.146;2024-01-16T12:36:03;94664.97;;;1.72;54.45
69570;BME280;56781;42.292;23.146;2024-01-16T12:38:33;94903.22;;;3.11;54.76
69570;BME280;56781;42.292;23.146;2024-01-16T12:41:05;94516.66;;;0.68;55.09
69570;BME280;56781;42.292;23.146;2024-01-16T12:43:35;94725.63;;;1.89;55.19
69570;BME280;56781;42.292;23.146;2024-01-16T12:46:04;94792.94;;;2.42;56.19
69570;BME280;56781;42.292;23.146;2024-01-16T12:48:33;94960.13;;;3.63;56.70
69570;BME280;56781;42.292;23.146;2024-01-16T12:51:03;95025.88;;;3.67;56.39
69570;BME280;56781;42.292;23.146;2024-01-16T12:53:36;94562.94;;;0.77;56.35
69570;BME280;56781;42.292;23.146;2024-01-16T12:56:09;95098.31;;;4.26;55.64
69570;BME280;56781;42.292;23.146;2024-01-16T12:58:39;94677.72;;;1.45;56.57
69570;BME280;56781;42.292;23.146;2024-01-16T13:01:25;94447.19;;;0.16;55.90
69570;BME280;56781;42.292;23.146;2024-01-16T13:04:06;94699.31;;;1.79;55.78
69570;BME280;56781;42.292;23.146;2024-01-16T13:06:35;94700.97;;;1.57;54.61
69570;BME280;56781;42.292;23.146;2024-01-16T13:09:05;94425.22;;;-0.39;56.56
69570;BME280;56781;42.292;23.146;2024-01-16T13:11:48;95086.50;;;4.04;56.64
69570;BME280;56781;42.292;23.146;2024-01-16T13:14:17;94950.53;;;3.28;57.25